sensor_id;sensor_type;location;lat;lon;timestamp;P1;durP1;ratioP1;P2;durP2;ratioP2
46607;SDS011;32330;51.936;7.184;2023-04-09T03:51:18;39.60;;;26.35;;
46607;SDS011;32330;51.936;7.184;2023-04-09T03:53:51;39.28;;;27.35;;
46607;SDS011;32330;51.936;7.184;2023-04-09T03:56:18;39.50;;;27.48;;
46607;SDS011;32330;51.936;7.184;2023-04-09T03:58:50;42.78;;;28.15;;
46607;SDS011;32330;51.936;7.184;2023-04-09T04:01:20;40.30;;;28.55;;
46607;SDS011;32330;51.936;7.184;2023-04-09T04:03:53;37.00;;;26.13;;
46607;SDS011;32330;51.936;7.184;2023-04-09T04:06:29;35.08;;;24.80;;
46607;SDS011;32330;51.936;7.184;2023-04-09T04:09:17;37.33;;;26.02;;
46607;SDS011;32330;51.936;7.184;2023-04-09T04:11:52;40.85;;;27.60;;
46607;SDS011;32330;51.936;7.184;2023-04-09T04:14:23;42.83;;;29.20;;
46607;SDS011;32330;51.936;7.184;2023-04-09T04:16:56;40.10;;;28.38;;
46607;SDS011;32330;51.936;7.184;2023-04-09T04:19:27;44.15;;;29.25;;
46607;SDS011;32330;51.936;7.184;2023-04-09T04:21:56;42.20;;;29.17;;
46607;SDS011;32330;51.936;7.184;2023-04-09T04:24:23;45.08;;;29.90;;
46607;SDS011;32330;51.936;7.184;2023-04-09T04:26:50;42.17;;;29.35;;
46607;SDS011;32330;51.936;7.184;2023-04-09T04:29:19;43.63;;;28.98;;
46607;SDS011;32330;51.936;7.184;2023-04-09T04:31:52;44.05;;;30.55;;
46607;SDS011;32330;51.936;7.184;2023-04-09T04:34:21;45.03;;;29.15;;
46607;SDS011;32330;51.936;7.184;2023-04-09T04:36:57;42.90;;;28.70;;
46607;SDS011;32330;51.936;7.184;2023-04-09T04:39:29;42.72;;;28.40;;
46607;SDS011;32330;51.936;7.184;2023-04-09T04:42:01;40.40;;;29.02;;
46607;SDS011;32330;51.936;7.184;2023-04-09T04:44:28;42.45;;;29.90;;
46607;SDS011;32330;51.936;7.184;2023-04-09T04:47:04;43.10;;;28.35;;
46607;SDS011;32330;51.936;7.184;2023-04-09T04:49:31;42.45;;;28.20;;
46607;SDS011;32330;51.936;7.184;2023-04-09T04:52:02;44.13;;;29.98;;
46607;SDS011;32330;51.936;7.184;2023-04-09T04:54:30;42.95;;;28.88;;
46607;SDS011;32330;51.936;7.184;2023-04-09T04:56:58;45.45;;;30.27;;
46607;SDS011;32330;51.936;7.184;2023-04-09T04:59:38;44.10;;;29.88;;
46607;SDS011;32330;51.936;7.184;2023-04-09T05:02:07;46.47;;;29.48;;
46607;SDS011;32330;51.936;7.184;2023-04-09T05:04:45;41.85;;;29.13;;
46607;SDS011;32330;51.936;7.184;2023-04-09T05:07:16;44.63;;;29.17;;
46607;SDS011;32330;51.936;7.184;2023-04-09T05:09:49;42.55;;;28.85;;
46607;SDS011;32330;51.936;7.184;2023-04-09T05:12:16;47.67;;;31.60;;
46607;SDS011;32330;51.936;7.184;2023-04-09T05:14:48;44.50;;;28.17;;
46607;SDS011;32330;51.936;7.184;2023-04-09T05:17:15;45.95;;;29.27;;
46607;SDS011;32330;51.936;7.184;2023-04-09T05:19:49;42.00;;;29.25;;
46607;SDS011;32330;51.936;7.184;2023-04-09T05:22:19;46.78;;;30.40;;
46607;SDS011;32330;51.936;7.184;2023-04-09T05:24:46;42.90;;;28.98;;
46607;SDS011;32330;51.936;7.184;2023-04-09T05:27:13;45.83;;;29.52;;
46607;SDS011;32330;51.936;7.184;2023-04-09T05:29:41;43.30;;;30.05;;
46607;SDS011;32330;51.936;7.184;2023-04-09T05:32:08;41.80;;;29.77;;
46607;SDS011;32330;51.936;7.184;2023-04-09T05:34:38;53.40;;;30.45;;
46607;SDS011;32330;51.936;7.184;2023-04-09T05:37:05;49.20;;;30.65;;
46607;SDS011;32330;51.936;7.184;2023-04-09T05:39:34;44.97;;;30.25;;
46607;SDS011;32330;51.936;7.184;2023-04-09T05:42:02;45.70;;;30.63;;
46607;SDS011;32330;51.936;7.184;2023-04-09T05:44:32;47.53;;;30.83;;
46607;SDS011;32330;51.936;7.184;2023-04-09T05:47:11;43.03;;;30.20;;
46607;SDS011;32330;51.936;7.184;2023-04-09T05:49:55;49.05;;;32.60;;
46607;SDS011;32330;51.936;7.184;2023-04-09T05:52:22;45.70;;;32.25;;
46607;SDS011;32330;51.936;7.184;2023-04-09T05:54:51;48.75;;;32.00;;
46607;SDS011;32330;51.936;7.184;2023-04-09T05:57:24;48.70;;;32.47;;
46607;SDS011;32330;51.936;7.184;2023-04-09T05:59:57;50.75;;;32.92;;
46607;SDS011;32330;51.936;7.184;2023-04-09T06:02:24;48.33;;;31.67;;
46607;SDS011;32330;51.936;7.184;2023-04-09T06:04:52;50.20;;;34.17;;
46607;SDS011;32330;51.936;7.184;2023-04-09T06:07:19;49.00;;;32.83;;
46607;SDS011;32330;51.936;7.184;2023-04-09T06:09:46;49.35;;;32.45;;
46607;SDS011;32330;51.936;7.184;2023-04-09T06:12:15;48.25;;;32.80;;
46607;SDS011;32330;51.936;7.184;2023-04-09T06:14:42;48.75;;;32.70;;
46607;SDS011;32330;51.936;7.184;2023-04-09T06:17:09;47.95;;;32.25;;
46607;SDS011;32330;51.936;7.184;2023-04-09T06:19:36;48.88;;;31.45;;
46607;SDS011;32330;51.936;7.184;2023-04-09T06:22:03;48.63;;;33.10;;
46607;SDS011;32330;51.936;7.184;2023-04-09T06:24:30;52.15;;;33.17;;
46607;SDS011;32330;51.936;7.184;2023-04-09T06:26:58;59.40;;;36.85;;
46607;SDS011;32330;51.936;7.184;2023-04-09T06:29:26;48.50;;;33.08;;
46607;SDS011;32330;51.936;7.184;2023-04-09T06:31:53;52.05;;;34.75;;
46607;SDS011;32330;51.936;7.184;2023-04-09T06:34:21;48.15;;;32.10;;
46607;SDS011;32330;51.936;7.184;2023-04-09T06:36:47;49.97;;;33.28;;
46607;SDS011;32330;51.936;7.184;2023-04-09T06:39:15;47.50;;;32.85;;
46607;SDS011;32330;51.936;7.184;2023-04-09T06:41:41;52.03;;;35.45;;
46607;SDS011;32330;51.936;7.184;2023-04-09T06:44:21;50.90;;;33.45;;
46607;SDS011;32330;51.936;7.184;2023-04-09T06:46:50;51.90;;;34.67;;
46607;SDS011;32330;51.936;7.184;2023-04-09T06:49:17;50.90;;;34.33;;
46607;SDS011;32330;51.936;7.184;2023-04-09T06:51:44;49.30;;;32.35;;
46607;SDS011;32330;51.936;7.184;2023-04-09T06:54:11;48.50;;;33.30;;
46607;SDS011;32330;51.936;7.184;2023-04-09T06:56:39;46.47;;;34.03;;
46607;SDS011;32330;51.936;7.184;2023-04-09T06:59:06;46.85;;;32.67;;
46607;SDS011;32330;51.936;7.184;2023-04-09T07:01:33;48.47;;;35.33;;
46607;SDS011;32330;51.936;7.184;2023-04-09T07:04:03;46.75;;;32.83;;
46607;SDS011;32330;51.936;7.184;2023-04-09T07:06:30;42.60;;;31.27;;
46607;SDS011;32330;51.936;7.184;2023-04-09T07:08:57;43.97;;;31.33;;
46607;SDS011;32330;51.936;7.184;2023-04-09T07:11:24;41.53;;;29.95;;
46607;SDS011;32330;51.936;7.184;2023-04-09T07:13:51;41.45;;;30.10;;
46607;SDS011;32330;51.936;7.184;2023-04-09T07:16:20;44.55;;;30.75;;
46607;SDS011;32330;51.936;7.184;2023-04-09T07:18:47;42.92;;;32.63;;
46607;SDS011;32330;51.936;7.184;2023-04-09T07:21:16;39.67;;;30.00;;
46607;SDS011;32330;51.936;7.184;2023-04-09T07:23:43;44.72;;;30.20;;
46607;SDS011;32330;51.936;7.184;2023-04-09T07:26:11;44.85;;;32.00;;
46607;SDS011;32330;51.936;7.184;2023-04-09T07:28:37;35.88;;;26.85;;
46607;SDS011;32330;51.936;7.184;2023-04-09T07:31:06;38.15;;;27.63;;
46607;SDS011;32330;51.936;7.184;2023-04-09T07:33:33;39.47;;;28.95;;
46607;SDS011;32330;51.936;7.184;2023-04-09T07:36:00;38.28;;;27.30;;
46607;SDS011;32330;51.936;7.184;2023-04-09T07:38:29;34.65;;;26.08;;
46607;SDS011;32330;51.936;7.184;2023-04-09T07:40:55;35.25;;;27.88;;
46607;SDS011;32330;51.936;7.184;2023-04-09T07:43:22;33.22;;;25.92;;
46607;SDS011;32330;51.936;7.184;2023-04-09T07:45:49;32.08;;;25.83;;
46607;SDS011;32330;51.936;7.184;2023-04-09T07:48:16;32.13;;;25.73;;
46607;SDS011;32330;51.936;7.184;2023-04-09T07:50:43;36.58;;;26.35;;
46607;SDS011;32330;51.936;7.184;2023-04-09T07:53:10;31.50;;;23.42;;
46607;SDS011;32330;51.936;7.184;2023-04-09T07:55:39;34.28;;;26.17;;
46607;SDS011;32330;51.936;7.184;2023-04-09T07:58:06;31.63;;;24.90;;
46607;SDS011;32330;51.936;7.184;2023-04-09T08:00:33;28.15;;;22.90;;
46607;SDS011;32330;51.936;7.184;2023-04-09T08:03:00;26.42;;;21.80;;
46607;SDS011;32330;51.936;7.184;2023-04-09T08:05:27;26.00;;;20.98;;
46607;SDS011;32330;51.936;7.184;2023-04-09T08:07:54;25.08;;;19.55;;
46607;SDS011;32330;51.936;7.184;2023-04-09T08:10:21;24.25;;;18.83;;
46607;SDS011;32330;51.936;7.184;2023-04-09T08:12:50;21.63;;;17.77;;
46607;SDS011;32330;51.936;7.184;2023-04-09T08:15:17;23.02;;;18.48;;
46607;SDS011;32330;51.936;7.184;2023-04-09T08:17:44;22.13;;;18.83;;
46607;SDS011;32330;51.936;7.184;2023-04-09T08:20:11;23.50;;;18.25;;
46607;SDS011;32330;51.936;7.184;2023-04-09T08:22:38;21.80;;;18.55;;
46607;SDS011;32330;51.936;7.184;2023-04-09T08:25:06;21.52;;;18.40;;
46607;SDS011;32330;51.936;7.184;2023-04-09T08:27:33;22.67;;;18.00;;
46607;SDS011;32330;51.936;7.184;2023-04-09T08:30:02;23.50;;;18.98;;
46607;SDS011;32330;51.936;7.184;2023-04-09T08:32:30;23.63;;;19.88;;
46607;SDS011;32330;51.936;7.184;2023-04-09T08:34:57;22.80;;;20.23;;
46607;SDS011;32330;51.936;7.184;2023-04-09T08:37:24;23.08;;;19.13;;
46607;SDS011;32330;51.936;7.184;2023-04-09T08:39:51;21.40;;;19.10;;
46607;SDS011;32330;51.936;7.184;2023-04-09T08:42:18;25.23;;;20.30;;
46607;SDS011;32330;51.936;7.184;2023-04-09T08:44:46;23.95;;;19.15;;
46607;SDS011;32330;51.936;7.184;2023-04-09T08:47:14;24.27;;;20.15;;
46607;SDS011;32330;51.936;7.184;2023-04-09T08:49:42;22.80;;;18.50;;
46607;SDS011;32330;51.936;7.184;2023-04-09T08:52:09;21.98;;;18.60;;
46607;SDS011;32330;51.936;7.184;2023-04-09T08:54:35;19.70;;;17.40;;
46607;SDS011;32330;51.936;7.184;2023-04-09T08:57:06;20.30;;;17.33;;
46607;SDS011;32330;51.936;7.184;2023-04-09T08:59:33;20.15;;;16.73;;
46607;SDS011;32330;51.936;7.184;2023-04-09T09:02:07;19.38;;;16.17;;
46607;SDS011;32330;51.936;7.184;2023-04-09T09:04:46;21.55;;;17.13;;
46607;SDS011;32330;51.936;7.184;2023-04-09T09:07:13;21.67;;;17.92;;
46607;SDS011;32330;51.936;7.184;2023-04-09T09:09:51;20.70;;;16.85;;
46607;SDS011;32330;51.936;7.184;2023-04-09T09:12:33;20.05;;;17.60;;
46607;SDS011;32330;51.936;7.184;2023-04-09T09:15:01;19.45;;;16.60;;
46607;SDS011;32330;51.936;7.184;2023-04-09T09:17:28;17.63;;;15.23;;
46607;SDS011;32330;51.936;7.184;2023-04-09T09:19:57;19.92;;;16.20;;
46607;SDS011;32330;51.936;7.184;2023-04-09T09:22:24;17.95;;;15.75;;
46607;SDS011;32330;51.936;7.184;2023-04-09T09:24:51;18.10;;;16.20;;
46607;SDS011;32330;51.936;7.184;2023-04-09T09:27:31;19.33;;;15.77;;
46607;SDS011;32330;51.936;7.184;2023-04-09T09:30:01;20.27;;;16.60;;
46607;SDS011;32330;51.936;7.184;2023-04-09T09:32:29;18.70;;;15.30;;
46607;SDS011;32330;51.936;7.184;2023-04-09T09:34:59;17.77;;;14.98;;
46607;SDS011;32330;51.936;7.184;2023-04-09T09:37:27;15.20;;;13.45;;
46607;SDS011;32330;51.936;7.184;2023-04-09T09:39:55;14.82;;;12.90;;
46607;SDS011;32330;51.936;7.184;2023-04-09T09:42:22;12.93;;;11.50;;
46607;SDS011;32330;51.936;7.184;2023-04-09T09:44:50;15.20;;;12.60;;
46607;SDS011;32330;51.936;7.184;2023-04-09T09:47:19;14.40;;;12.90;;
46607;SDS011;32330;51.936;7.184;2023-04-09T09:49:46;14.40;;;12.90;;
46607;SDS011;32330;51.936;7.184;2023-04-09T09:52:19;13.68;;;11.45;;
46607;SDS011;32330;51.936;7.184;2023-04-09T09:54:51;14.07;;;12.50;;
46607;SDS011;32330;51.936;7.184;2023-04-09T09:57:20;17.30;;;12.85;;
46607;SDS011;32330;51.936;7.184;2023-04-09T09:59:52;14.20;;;12.65;;
46607;SDS011;32330;51.936;7.184;2023-04-09T10:02:22;17.38;;;12.18;;
46607;SDS011;32330;51.936;7.184;2023-04-09T10:04:51;14.30;;;12.80;;
46607;SDS011;32330;51.936;7.184;2023-04-09T10:07:19;14.15;;;12.45;;
46607;SDS011;32330;51.936;7.184;2023-04-09T10:09:48;13.82;;;12.15;;
46607;SDS011;32330;51.936;7.184;2023-04-09T10:12:17;14.50;;;13.00;;
46607;SDS011;32330;51.936;7.184;2023-04-09T10:14:47;13.23;;;11.82;;
46607;SDS011;32330;51.936;7.184;2023-04-09T10:17:16;11.00;;;9.90;;
46607;SDS011;32330;51.936;7.184;2023-04-09T10:19:45;9.00;;;8.10;;
46607;SDS011;32330;51.936;7.184;2023-04-09T10:22:17;10.90;;;9.27;;
46607;SDS011;32330;51.936;7.184;2023-04-09T10:24:50;10.02;;;8.98;;
46607;SDS011;32330;51.936;7.184;2023-04-09T10:27:18;10.18;;;9.18;;
46607;SDS011;32330;51.936;7.184;2023-04-09T10:29:45;11.40;;;9.70;;
46607;SDS011;32330;51.936;7.184;2023-04-09T10:32:16;11.43;;;10.23;;
46607;SDS011;32330;51.936;7.184;2023-04-09T10:34:45;11.05;;;8.60;;
46607;SDS011;32330;51.936;7.184;2023-04-09T10:37:14;10.18;;;9.18;;
46607;SDS011;32330;51.936;7.184;2023-04-09T10:39:47;10.43;;;9.27;;
46607;SDS011;32330;51.936;7.184;2023-04-09T10:42:17;10.25;;;9.07;;
46607;SDS011;32330;51.936;7.184;2023-04-09T10:44:50;10.35;;;9.23;;
46607;SDS011;32330;51.936;7.184;2023-04-09T10:47:30;10.93;;;9.82;;
46607;SDS011;32330;51.936;7.184;2023-04-09T10:50:12;10.68;;;9.57;;
46607;SDS011;32330;51.936;7.184;2023-04-09T10:52:41;10.55;;;9.00;;
46607;SDS011;32330;51.936;7.184;2023-04-09T10:55:09;9.27;;;8.30;;
46607;SDS011;32330;51.936;7.184;2023-04-09T10:57:56;9.73;;;8.70;;
46607;SDS011;32330;51.936;7.184;2023-04-09T11:00:26;9.80;;;8.80;;
46607;SDS011;32330;51.936;7.184;2023-04-09T11:02:57;9.32;;;8.20;;
46607;SDS011;32330;51.936;7.184;2023-04-09T11:05:45;9.38;;;8.38;;
46607;SDS011;32330;51.936;7.184;2023-04-09T11:08:14;9.52;;;8.52;;
46607;SDS011;32330;51.936;7.184;2023-04-09T11:10:44;8.93;;;7.93;;
46607;SDS011;32330;51.936;7.184;2023-04-09T11:13:12;10.23;;;8.82;;
46607;SDS011;32330;51.936;7.184;2023-04-09T11:15:39;9.93;;;8.93;;
46607;SDS011;32330;51.936;7.184;2023-04-09T11:18:07;9.73;;;8.73;;
46607;SDS011;32330;51.936;7.184;2023-04-09T11:20:37;9.90;;;8.90;;
46607;SDS011;32330;51.936;7.184;2023-04-09T11:23:04;9.82;;;8.82;;
46607;SDS011;32330;51.936;7.184;2023-04-09T11:25:31;10.40;;;8.93;;
46607;SDS011;32330;51.936;7.184;2023-04-09T11:28:02;10.35;;;9.35;;
46607;SDS011;32330;51.936;7.184;2023-04-09T11:30:30;10.93;;;9.57;;
46607;SDS011;32330;51.936;7.184;2023-04-09T11:32:58;10.73;;;9.63;;
46607;SDS011;32330;51.936;7.184;2023-04-09T11:35:25;9.43;;;8.32;;
46607;SDS011;32330;51.936;7.184;2023-04-09T11:37:53;10.63;;;9.52;;
46607;SDS011;32330;51.936;7.184;2023-04-09T11:40:20;10.88;;;9.88;;
46607;SDS011;32330;51.936;7.184;2023-04-09T11:42:49;9.80;;;8.85;;
46607;SDS011;32330;51.936;7.184;2023-04-09T11:45:19;11.23;;;10.10;;
46607;SDS011;32330;51.936;7.184;2023-04-09T11:47:56;10.77;;;9.68;;
46607;SDS011;32330;51.936;7.184;2023-04-09T11:50:24;10.63;;;9.63;;
46607;SDS011;32330;51.936;7.184;2023-04-09T11:52:51;10.15;;;9.15;;
46607;SDS011;32330;51.936;7.184;2023-04-09T11:55:22;10.25;;;9.25;;
46607;SDS011;32330;51.936;7.184;2023-04-09T11:57:50;11.23;;;10.13;;
46607;SDS011;32330;51.936;7.184;2023-04-09T12:00:20;9.90;;;8.82;;
46607;SDS011;32330;51.936;7.184;2023-04-09T12:02:49;11.70;;;10.50;;
46607;SDS011;32330;51.936;7.184;2023-04-09T12:05:20;12.30;;;10.50;;
46607;SDS011;32330;51.936;7.184;2023-04-09T12:07:49;11.85;;;10.65;;
46607;SDS011;32330;51.936;7.184;2023-04-09T12:10:16;11.50;;;10.40;;
46607;SDS011;32330;51.936;7.184;2023-04-09T12:12:43;12.48;;;11.18;;
46607;SDS011;32330;51.936;7.184;2023-04-09T12:15:18;11.07;;;9.88;;
46607;SDS011;32330;51.936;7.184;2023-04-09T12:17:48;11.73;;;10.57;;
46607;SDS011;32330;51.936;7.184;2023-04-09T12:20:28;11.82;;;10.63;;
46607;SDS011;32330;51.936;7.184;2023-04-09T12:25:25;11.02;;;9.93;;
46607;SDS011;32330;51.936;7.184;2023-04-09T12:27:53;10.77;;;9.68;;
46607;SDS011;32330;51.936;7.184;2023-04-09T12:30:22;10.68;;;9.57;;
46607;SDS011;32330;51.936;7.184;2023-04-09T12:32:50;10.38;;;9.38;;
46607;SDS011;32330;51.936;7.184;2023-04-09T12:35:18;11.10;;;10.00;;
46607;SDS011;32330;51.936;7.184;2023-04-09T12:37:45;11.10;;;9.98;;
46607;SDS011;32330;51.936;7.184;2023-04-09T12:40:15;10.60;;;9.50;;
46607;SDS011;32330;51.936;7.184;2023-04-09T12:42:43;10.68;;;9.65;;
46607;SDS011;32330;51.936;7.184;2023-04-09T12:45:11;11.20;;;10.00;;
46607;SDS011;32330;51.936;7.184;2023-04-09T12:47:40;12.50;;;11.23;;
46607;SDS011;32330;51.936;7.184;2023-04-09T12:50:08;10.60;;;9.60;;
46607;SDS011;32330;51.936;7.184;2023-04-09T12:52:36;10.65;;;9.45;;
46607;SDS011;32330;51.936;7.184;2023-04-09T12:55:04;10.73;;;9.70;;
46607;SDS011;32330;51.936;7.184;2023-04-09T12:57:32;10.23;;;9.23;;
46607;SDS011;32330;51.936;7.184;2023-04-09T12:59:59;10.50;;;9.50;;
46607;SDS011;32330;51.936;7.184;2023-04-09T13:02:26;11.75;;;10.50;;
46607;SDS011;32330;51.936;7.184;2023-04-09T13:04:55;10.63;;;9.52;;
46607;SDS011;32330;51.936;7.184;2023-04-09T13:07:22;9.82;;;8.82;;
46607;SDS011;32330;51.936;7.184;2023-04-09T13:09:50;9.90;;;8.93;;
46607;SDS011;32330;51.936;7.184;2023-04-09T13:12:17;9.48;;;8.48;;
46607;SDS011;32330;51.936;7.184;2023-04-09T13:14:46;8.20;;;7.43;;
46607;SDS011;32330;51.936;7.184;2023-04-09T13:17:13;9.02;;;8.13;;
46607;SDS011;32330;51.936;7.184;2023-04-09T13:19:40;9.00;;;8.10;;
46607;SDS011;32330;51.936;7.184;2023-04-09T13:22:09;9.23;;;8.32;;
46607;SDS011;32330;51.936;7.184;2023-04-09T13:24:36;8.82;;;7.97;;
46607;SDS011;32330;51.936;7.184;2023-04-09T13:27:04;9.13;;;8.23;;
46607;SDS011;32330;51.936;7.184;2023-04-09T13:29:33;8.38;;;7.57;;
46607;SDS011;32330;51.936;7.184;2023-04-09T13:32:00;8.20;;;7.35;;
46607;SDS011;32330;51.936;7.184;2023-04-09T13:34:31;7.83;;;7.17;;
46607;SDS011;32330;51.936;7.184;2023-04-09T13:36:58;8.18;;;7.38;;
46607;SDS011;32330;51.936;7.184;2023-04-09T13:39:27;8.10;;;7.30;;
46607;SDS011;32330;51.936;7.184;2023-04-09T13:41:54;8.15;;;7.35;;
46607;SDS011;32330;51.936;7.184;2023-04-09T13:44:21;9.02;;;7.22;;
46607;SDS011;32330;51.936;7.184;2023-04-09T13:46:48;8.45;;;7.65;;
46607;SDS011;32330;51.936;7.184;2023-04-09T13:49:15;9.75;;;8.38;;
46607;SDS011;32330;51.936;7.184;2023-04-09T13:51:42;8.35;;;7.55;;
46607;SDS011;32330;51.936;7.184;2023-04-09T13:54:10;8.18;;;7.38;;
46607;SDS011;32330;51.936;7.184;2023-04-09T13:56:38;7.95;;;7.15;;
46607;SDS011;32330;51.936;7.184;2023-04-09T13:59:05;8.43;;;7.53;;
46607;SDS011;32330;51.936;7.184;2023-04-09T14:01:33;7.95;;;7.25;;
46607;SDS011;32330;51.936;7.184;2023-04-09T14:03:59;8.10;;;7.30;;
46607;SDS011;32330;51.936;7.184;2023-04-09T14:06:26;9.60;;;8.70;;
46607;SDS011;32330;51.936;7.184;2023-04-09T14:08:54;9.23;;;8.32;;
46607;SDS011;32330;51.936;7.184;2023-04-09T14:11:21;8.65;;;7.78;;
46607;SDS011;32330;51.936;7.184;2023-04-09T14:13:49;8.10;;;7.40;;
46607;SDS011;32330;51.936;7.184;2023-04-09T14:16:16;7.97;;;7.20;;
46607;SDS011;32330;51.936;7.184;2023-04-09T14:18:44;7.85;;;7.15;;
46607;SDS011;32330;51.936;7.184;2023-04-09T14:21:11;8.88;;;8.02;;
46607;SDS011;32330;51.936;7.184;2023-04-09T14:23:38;8.13;;;7.35;;
46607;SDS011;32330;51.936;7.184;2023-04-09T14:26:05;10.38;;;8.55;;
46607;SDS011;32330;51.936;7.184;2023-04-09T14:28:32;8.43;;;7.63;;
46607;SDS011;32330;51.936;7.184;2023-04-09T14:31:01;8.95;;;8.05;;
46607;SDS011;32330;51.936;7.184;2023-04-09T14:33:27;7.60;;;6.90;;
46607;SDS011;32330;51.936;7.184;2023-04-09T14:35:55;9.65;;;7.88;;
46607;SDS011;32330;51.936;7.184;2023-04-09T14:38:22;8.55;;;7.75;;
46607;SDS011;32330;51.936;7.184;2023-04-09T14:40:50;9.55;;;8.63;;
46607;SDS011;32330;51.936;7.184;2023-04-09T14:43:17;9.70;;;8.70;;
46607;SDS011;32330;51.936;7.184;2023-04-09T14:45:44;10.60;;;9.60;;
46607;SDS011;32330;51.936;7.184;2023-04-09T14:48:13;9.15;;;8.35;;
46607;SDS011;32330;51.936;7.184;2023-04-09T14:50:39;8.95;;;7.93;;
46607;SDS011;32330;51.936;7.184;2023-04-09T14:53:07;9.02;;;8.13;;
46607;SDS011;32330;51.936;7.184;2023-04-09T14:55:34;8.95;;;8.10;;
46607;SDS011;32330;51.936;7.184;2023-04-09T14:58:01;8.95;;;8.05;;
46607;SDS011;32330;51.936;7.184;2023-04-09T15:00:31;8.30;;;7.40;;
46607;SDS011;32330;51.936;7.184;2023-04-09T15:02:58;8.10;;;7.30;;
46607;SDS011;32330;51.936;7.184;2023-04-09T15:05:26;9.52;;;8.43;;
46607;SDS011;32330;51.936;7.184;2023-04-09T15:07:53;9.07;;;8.23;;
46607;SDS011;32330;51.936;7.184;2023-04-09T15:10:20;9.27;;;8.38;;
46607;SDS011;32330;51.936;7.184;2023-04-09T15:12:47;9.75;;;8.85;;
46607;SDS011;32330;51.936;7.184;2023-04-09T15:15:14;8.70;;;7.88;;
46607;SDS011;32330;51.936;7.184;2023-04-09T15:17:41;8.75;;;7.80;;
46607;SDS011;32330;51.936;7.184;2023-04-09T15:20:09;9.40;;;8.07;;
46607;SDS011;32330;51.936;7.184;2023-04-09T15:22:39;8.88;;;8.07;;
46607;SDS011;32330;51.936;7.184;2023-04-09T15:25:06;9.38;;;7.80;;
46607;SDS011;32330;51.936;7.184;2023-04-09T15:27:33;16.02;;;14.32;;
46607;SDS011;32330;51.936;7.184;2023-04-09T15:30:00;9.77;;;8.88;;
46607;SDS011;32330;51.936;7.184;2023-04-09T15:32:27;8.40;;;7.60;;
46607;SDS011;32330;51.936;7.184;2023-04-09T15:34:55;8.52;;;7.72;;
46607;SDS011;32330;51.936;7.184;2023-04-09T15:37:21;10.00;;;9.07;;
46607;SDS011;32330;51.936;7.184;2023-04-09T15:39:50;10.32;;;9.32;;
46607;SDS011;32330;51.936;7.184;2023-04-09T15:42:17;32.78;;;26.27;;
46607;SDS011;32330;51.936;7.184;2023-04-09T15:44:46;11.77;;;10.57;;
46607;SDS011;32330;51.936;7.184;2023-04-09T15:47:14;10.68;;;9.63;;
46607;SDS011;32330;51.936;7.184;2023-04-09T15:49:41;9.70;;;8.75;;
46607;SDS011;32330;51.936;7.184;2023-04-09T15:52:08;9.80;;;8.80;;
46607;SDS011;32330;51.936;7.184;2023-04-09T15:54:35;9.32;;;8.43;;
46607;SDS011;32330;51.936;7.184;2023-04-09T15:57:03;9.25;;;8.35;;
46607;SDS011;32330;51.936;7.184;2023-04-09T15:59:33;10.60;;;9.60;;
46607;SDS011;32330;51.936;7.184;2023-04-09T16:02:00;11.05;;;10.05;;
46607;SDS011;32330;51.936;7.184;2023-04-09T16:04:28;9.88;;;9.00;;
46607;SDS011;32330;51.936;7.184;2023-04-09T16:06:55;10.40;;;9.40;;
46607;SDS011;32330;51.936;7.184;2023-04-09T16:09:22;10.63;;;9.63;;
46607;SDS011;32330;51.936;7.184;2023-04-09T16:11:49;10.27;;;9.30;;
46607;SDS011;32330;51.936;7.184;2023-04-09T16:14:17;9.55;;;8.65;;
46607;SDS011;32330;51.936;7.184;2023-04-09T16:16:44;21.13;;;17.33;;
46607;SDS011;32330;51.936;7.184;2023-04-09T16:19:14;16.23;;;12.05;;
46607;SDS011;32330;51.936;7.184;2023-04-09T16:21:42;10.00;;;9.00;;
46607;SDS011;32330;51.936;7.184;2023-04-09T16:24:09;9.60;;;8.63;;
46607;SDS011;32330;51.936;7.184;2023-04-09T16:26:37;21.73;;;15.93;;
46607;SDS011;32330;51.936;7.184;2023-04-09T16:29:05;34.28;;;22.52;;
46607;SDS011;32330;51.936;7.184;2023-04-09T16:31:33;51.00;;;35.22;;
46607;SDS011;32330;51.936;7.184;2023-04-09T16:34:00;48.45;;;37.20;;
46607;SDS011;32330;51.936;7.184;2023-04-09T16:36:28;30.25;;;23.58;;
46607;SDS011;32330;51.936;7.184;2023-04-09T16:38:55;14.05;;;11.52;;
46607;SDS011;32330;51.936;7.184;2023-04-09T16:41:23;10.65;;;9.55;;
46607;SDS011;32330;51.936;7.184;2023-04-09T16:43:50;11.10;;;10.00;;
46607;SDS011;32330;51.936;7.184;2023-04-09T16:46:17;15.15;;;13.38;;
46607;SDS011;32330;51.936;7.184;2023-04-09T16:48:45;26.92;;;20.08;;
46607;SDS011;32330;51.936;7.184;2023-04-09T16:51:12;13.20;;;10.77;;
46607;SDS011;32330;51.936;7.184;2023-04-09T16:53:41;11.18;;;9.90;;
46607;SDS011;32330;51.936;7.184;2023-04-09T16:56:08;13.15;;;11.82;;
46607;SDS011;32330;51.936;7.184;2023-04-09T16:58:36;11.75;;;10.60;;
46607;SDS011;32330;51.936;7.184;2023-04-09T17:01:03;12.23;;;9.93;;
46607;SDS011;32330;51.936;7.184;2023-04-09T17:03:30;10.18;;;9.18;;
46607;SDS011;32330;51.936;7.184;2023-04-09T17:05:59;10.00;;;8.88;;
46607;SDS011;32330;51.936;7.184;2023-04-09T17:08:26;12.55;;;11.35;;
46607;SDS011;32330;51.936;7.184;2023-04-09T17:10:53;10.00;;;9.00;;
46607;SDS011;32330;51.936;7.184;2023-04-09T17:13:26;10.88;;;9.77;;
46607;SDS011;32330;51.936;7.184;2023-04-09T17:15:54;10.93;;;9.82;;
46607;SDS011;32330;51.936;7.184;2023-04-09T17:18:21;11.38;;;10.27;;
46607;SDS011;32330;51.936;7.184;2023-04-09T17:20:48;11.27;;;10.18;;
46607;SDS011;32330;51.936;7.184;2023-04-09T17:23:19;10.90;;;9.50;;
46607;SDS011;32330;51.936;7.184;2023-04-09T17:25:49;11.40;;;10.20;;
46607;SDS011;32330;51.936;7.184;2023-04-09T17:28:17;12.95;;;11.57;;
46607;SDS011;32330;51.936;7.184;2023-04-09T17:30:44;13.63;;;12.30;;
46607;SDS011;32330;51.936;7.184;2023-04-09T17:33:11;15.63;;;14.02;;
46607;SDS011;32330;51.936;7.184;2023-04-09T17:35:38;15.95;;;13.98;;
46607;SDS011;32330;51.936;7.184;2023-04-09T17:38:06;16.35;;;14.63;;
46607;SDS011;32330;51.936;7.184;2023-04-09T17:40:35;22.70;;;20.40;;
46607;SDS011;32330;51.936;7.184;2023-04-09T17:43:02;17.63;;;15.80;;
46607;SDS011;32330;51.936;7.184;2023-04-09T17:45:29;17.48;;;15.60;;
46607;SDS011;32330;51.936;7.184;2023-04-09T17:47:56;16.92;;;15.13;;
46607;SDS011;32330;51.936;7.184;2023-04-09T17:50:23;17.45;;;15.45;;
46607;SDS011;32330;51.936;7.184;2023-04-09T17:52:50;16.52;;;14.93;;
46607;SDS011;32330;51.936;7.184;2023-04-09T17:55:17;18.45;;;16.65;;
46607;SDS011;32330;51.936;7.184;2023-04-09T17:57:45;15.80;;;13.98;;
46607;SDS011;32330;51.936;7.184;2023-04-09T18:00:13;15.25;;;13.63;;
46607;SDS011;32330;51.936;7.184;2023-04-09T18:02:49;19.38;;;17.48;;
46607;SDS011;32330;51.936;7.184;2023-04-09T18:05:17;20.33;;;18.23;;
46607;SDS011;32330;51.936;7.184;2023-04-09T18:07:44;16.40;;;14.70;;
46607;SDS011;32330;51.936;7.184;2023-04-09T18:10:11;32.13;;;27.45;;
46607;SDS011;32330;51.936;7.184;2023-04-09T18:12:38;69.45;;;58.08;;
46607;SDS011;32330;51.936;7.184;2023-04-09T18:15:07;56.10;;;47.95;;
46607;SDS011;32330;51.936;7.184;2023-04-09T18:17:35;31.75;;;27.67;;
46607;SDS011;32330;51.936;7.184;2023-04-09T18:20:02;25.92;;;22.95;;
46607;SDS011;32330;51.936;7.184;2023-04-09T18:22:29;21.20;;;18.98;;
46607;SDS011;32330;51.936;7.184;2023-04-09T18:24:56;20.23;;;17.55;;
46607;SDS011;32330;51.936;7.184;2023-04-09T18:27:23;18.77;;;16.80;;
46607;SDS011;32330;51.936;7.184;2023-04-09T18:29:50;19.38;;;17.15;;